sensor_id;sensor_type;location;lat;lon;timestamp;temperature;humidity
26599;DHT22;14240;51.064;16.612;2023-03-15T00:00:41;3.60;99.90
26599;DHT22;14240;51.064;16.612;2023-03-15T00:03:07;3.60;99.90
26599;DHT22;14240;51.064;16.612;2023-03-15T00:05:33;3.70;99.90
26599;DHT22;14240;51.064;16.612;2023-03-15T00:07:59;3.60;99.90
26599;DHT22;14240;51.064;16.612;2023-03-15T00:10:25;3.60;99.90
26599;DHT22;14240;51.064;16.612;2023-03-15T00:12:50;3.60;99.90
26599;DHT22;14240;51.064;16.612;2023-03-15T00:15:16;3.70;99.90
26599;DHT22;14240;51.064;16.612;2023-03-15T00:17:42;3.60;99.90
26599;DHT22;14240;51.064;16.612;2023-03-15T00:20:10;3.60;99.90
26599;DHT22;14240;51.064;16.612;2023-03-15T00:22:35;3.60;99.90
26599;DHT22;14240;51.064;16.612;2023-03-15T00:25:01;3.60;99.90
26599;DHT22;14240;51.064;16.612;2023-03-15T00:27:27;3.60;99.90
26599;DHT22;14240;51.064;16.612;2023-03-15T00:29:52;3.60;99.90
26599;DHT22;14240;51.064;16.612;2023-03-15T00:32:18;3.60;99.90
26599;DHT22;14240;51.064;16.612;2023-03-15T00:34:44;3.60;99.90
26599;DHT22;14240;51.064;16.612;2023-03-15T00:37:16;3.60;99.90
26599;DHT22;14240;51.064;16.612;2023-03-15T00:39:48;3.60;99.90
26599;DHT22;14240;51.064;16.612;2023-03-15T00:42:14;3.60;99.90
26599;DHT22;14240;51.064;16.612;2023-03-15T00:44:43;3.60;99.90
26599;DHT22;14240;51.064;16.612;2023-03-15T00:47:13;3.60;99.90
26599;DHT22;14240;51.064;16.612;2023-03-15T00:49:40;3.60;99.90
26599;DHT22;14240;51.064;16.612;2023-03-15T00:52:06;3.60;99.90
26599;DHT22;14240;51.064;16.612;2023-03-15T00:54:32;3.60;99.90
26599;DHT22;14240;51.064;16.612;2023-03-15T00:57:01;3.60;99.90
26599;DHT22;14240;51.064;16.612;2023-03-15T00:59:31;3.60;99.90
26599;DHT22;14240;51.064;16.612;2023-03-15T01:02:00;3.60;99.90
26599;DHT22;14240;51.064;16.612;2023-03-15T01:04:26;3.60;99.90
26599;DHT22;14240;51.064;16.612;2023-03-15T01:06:52;3.60;99.90
26599;DHT22;14240;51.064;16.612;2023-03-15T01:09:18;3.60;99.90
26599;DHT22;14240;51.064;16.612;2023-03-15T01:11:44;3.50;99.90
26599;DHT22;14240;51.064;16.612;2023-03-15T01:14:09;3.50;99.90
26599;DHT22;14240;51.064;16.612;2023-03-15T01:16:35;3.50;99.90
26599;DHT22;14240;51.064;16.612;2023-03-15T01:19:01;3.50;99.90
26599;DHT22;14240;51.064;16.612;2023-03-15T01:21:27;3.50;99.90
26599;DHT22;14240;51.064;16.612;2023-03-15T01:23:53;3.50;99.90
26599;DHT22;14240;51.064;16.612;2023-03-15T01:26:19;3.50;99.90
26599;DHT22;14240;51.064;16.612;2023-03-15T01:28:45;3.50;99.90
26599;DHT22;14240;51.064;16.612;2023-03-15T01:31:23;3.50;99.90
26599;DHT22;14240;51.064;16.612;2023-03-15T01:33:49;3.50;99.90
26599;DHT22;14240;51.064;16.612;2023-03-15T01:36:15;3.50;99.90
26599;DHT22;14240;51.064;16.612;2023-03-15T01:38:41;3.40;99.90
26599;DHT22;14240;51.064;16.612;2023-03-15T01:41:07;3.40;99.90
26599;DHT22;14240;51.064;16.612;2023-03-15T01:43:33;3.40;99.90
26599;DHT22;14240;51.064;16.612;2023-03-15T01:56:34;3.40;99.90
26599;DHT22;14240;51.064;16.612;2023-03-15T01:59:03;3.30;99.90
26599;DHT22;14240;51.064;16.612;2023-03-15T02:01:30;3.30;99.90
26599;DHT22;14240;51.064;16.612;2023-03-15T02:04:06;3.30;99.90
26599;DHT22;14240;51.064;16.612;2023-03-15T02:06:33;3.30;99.90
26599;DHT22;14240;51.064;16.612;2023-03-15T02:09:03;3.30;99.90
26599;DHT22;14240;51.064;16.612;2023-03-15T02:11:30;3.30;99.90
26599;DHT22;14240;51.064;16.612;2023-03-15T02:13:57;3.30;99.90
26599;DHT22;14240;51.064;16.612;2023-03-15T02:16:24;3.30;99.90
26599;DHT22;14240;51.064;16.612;2023-03-15T02:18:49;3.30;99.90
26599;DHT22;14240;51.064;16.612;2023-03-15T02:24:28;3.30;99.90
26599;DHT22;14240;51.064;16.612;2023-03-15T02:26:57;3.20;99.90
26599;DHT22;14240;51.064;16.612;2023-03-15T02:29:25;3.20;99.90
26599;DHT22;14240;51.064;16.612;2023-03-15T02:31:53;3.20;99.90
26599;DHT22;14240;51.064;16.612;2023-03-15T02:34:20;3.10;99.90
26599;DHT22;14240;51.064;16.612;2023-03-15T02:36:50;3.20;99.90
26599;DHT22;14240;51.064;16.612;2023-03-15T02:39:19;3.10;99.90
26599;DHT22;14240;51.064;16.612;2023-03-15T02:41:53;3.10;99.90
26599;DHT22;14240;51.064;16.612;2023-03-15T02:44:27;3.10;99.90
26599;DHT22;14240;51.064;16.612;2023-03-15T02:46:58;3.10;99.90
26599;DHT22;14240;51.064;16.612;2023-03-15T02:49:28;3.10;99.90
26599;DHT22;14240;51.064;16.612;2023-03-15T02:51:55;3.00;99.90
26599;DHT22;14240;51.064;16.612;2023-03-15T02:54:20;3.00;99.90
26599;DHT22;14240;51.064;16.612;2023-03-15T02:56:46;2.70;99.90
26599;DHT22;14240;51.064;16.612;2023-03-15T02:59:12;3.00;99.90
26599;DHT22;14240;51.064;16.612;2023-03-15T03:01:37;3.00;99.90
26599;DHT22;14240;51.064;16.612;2023-03-15T03:04:03;3.00;99.90
26599;DHT22;14240;51.064;16.612;2023-03-15T03:06:29;3.00;99.90
26599;DHT22;14240;51.064;16.612;2023-03-15T03:08:55;3.00;99.90
26599;DHT22;14240;51.064;16.612;2023-03-15T03:11:21;2.90;99.90
26599;DHT22;14240;51.064;16.612;2023-03-15T03:13:46;2.90;99.90
26599;DHT22;14240;51.064;16.612;2023-03-15T03:16:12;2.90;99.90
26599;DHT22;14240;51.064;16.612;2023-03-15T03:18:38;2.90;99.90
26599;DHT22;14240;51.064;16.612;2023-03-15T03:21:05;2.90;99.90
26599;DHT22;14240;51.064;16.612;2023-03-15T03:23:33;2.90;99.90
26599;DHT22;14240;51.064;16.612;2023-03-15T03:25:59;2.80;99.90
26599;DHT22;14240;51.064;16.612;2023-03-15T03:28:26;2.80;99.90
26599;DHT22;14240;51.064;16.612;2023-03-15T03:30:54;2.80;99.90
26599;DHT22;14240;51.064;16.612;2023-03-15T03:33:21;2.80;99.90
26599;DHT22;14240;51.064;16.612;2023-03-15T03:35:47;2.80;99.90
26599;DHT22;14240;51.064;16.612;2023-03-15T03:38:14;2.80;99.90
26599;DHT22;14240;51.064;16.612;2023-03-15T03:40:40;2.80;99.90
26599;DHT22;14240;51.064;16.612;2023-03-15T03:43:07;2.80;99.90
26599;DHT22;14240;51.064;16.612;2023-03-15T03:45:33;2.80;99.90
26599;DHT22;14240;51.064;16.612;2023-03-15T03:47:59;2.80;99.90
26599;DHT22;14240;51.064;16.612;2023-03-15T03:50:26;2.70;99.90
26599;DHT22;14240;51.064;16.612;2023-03-15T03:52:52;2.70;99.90
26599;DHT22;14240;51.064;16.612;2023-03-15T03:55:18;2.70;99.90
26599;DHT22;14240;51.064;16.612;2023-03-15T03:57:43;2.70;99.90
26599;DHT22;14240;51.064;16.612;2023-03-15T04:00:12;2.70;99.90
26599;DHT22;14240;51.064;16.612;2023-03-15T04:02:39;2.70;99.90
26599;DHT22;14240;51.064;16.612;2023-03-15T04:05:08;2.70;99.90
26599;DHT22;14240;51.064;16.612;2023-03-15T04:07:34;2.60;99.90
26599;DHT22;14240;51.064;16.612;2023-03-15T04:09:59;2.60;99.90
26599;DHT22;14240;51.064;16.612;2023-03-15T04:12:27;2.60;99.90
26599;DHT22;14240;51.064;16.612;2023-03-15T04:14:53;2.60;99.90
26599;DHT22;14240;51.064;16.612;2023-03-15T04:17:18;2.60;99.90
26599;DHT22;14240;51.064;16.612;2023-03-15T04:19:44;2.60;99.90
26599;DHT22;14240;51.064;16.612;2023-03-15T04:22:13;2.60;99.90
26599;DHT22;14240;51.064;16.612;2023-03-15T04:24:43;2.60;99.90
26599;DHT22;14240;51.064;16.612;2023-03-15T04:27:08;2.60;99.90
26599;DHT22;14240;51.064;16.612;2023-03-15T04:29:40;2.60;99.90
26599;DHT22;14240;51.064;16.612;2023-03-15T04:32:06;2.60;99.90
26599;DHT22;14240;51.064;16.612;2023-03-15T04:34:32;2.60;99.90
26599;DHT22;14240;51.064;16.612;2023-03-15T04:37:03;2.60;99.90
26599;DHT22;14240;51.064;16.612;2023-03-15T04:39:30;2.60;99.90
26599;DHT22;14240;51.064;16.612;2023-03-15T04:41:56;2.60;99.90
26599;DHT22;14240;51.064;16.612;2023-03-15T04:44:22;2.50;99.90
26599;DHT22;14240;51.064;16.612;2023-03-15T04:46:52;2.50;99.90
26599;DHT22;14240;51.064;16.612;2023-03-15T04:49:18;2.50;99.90
26599;DHT22;14240;51.064;16.612;2023-03-15T04:51:43;2.50;99.90
26599;DHT22;14240;51.064;16.612;2023-03-15T04:54:09;2.50;99.90
26599;DHT22;14240;51.064;16.612;2023-03-15T04:56:35;2.50;99.90
26599;DHT22;14240;51.064;16.612;2023-03-15T04:59:02;2.50;99.90
26599;DHT22;14240;51.064;16.612;2023-03-15T05:01:29;2.50;99.90
26599;DHT22;14240;51.064;16.612;2023-03-15T05:03:56;2.50;99.90
26599;DHT22;14240;51.064;16.612;2023-03-15T05:06:22;2.40;99.90
26599;DHT22;14240;51.064;16.612;2023-03-15T05:08:48;2.50;99.90
26599;DHT22;14240;51.064;16.612;2023-03-15T05:11:14;2.50;99.90
26599;DHT22;14240;51.064;16.612;2023-03-15T05:13:40;2.40;99.90
26599;DHT22;14240;51.064;16.612;2023-03-15T05:16:05;2.40;99.90
26599;DHT22;14240;51.064;16.612;2023-03-15T05:18:31;2.40;99.90
26599;DHT22;14240;51.064;16.612;2023-03-15T05:20:58;2.40;99.90
26599;DHT22;14240;51.064;16.612;2023-03-15T05:23:24;2.40;99.90
26599;DHT22;14240;51.064;16.612;2023-03-15T05:25:54;2.40;99.90
26599;DHT22;14240;51.064;16.612;2023-03-15T05:28:21;2.30;99.90
26599;DHT22;14240;51.064;16.612;2023-03-15T05:30:48;2.30;99.90
26599;DHT22;14240;51.064;16.612;2023-03-15T05:33:14;2.30;99.90
26599;DHT22;14240;51.064;16.612;2023-03-15T05:35:41;2.30;99.90
26599;DHT22;14240;51.064;16.612;2023-03-15T05:38:08;2.30;99.90
26599;DHT22;14240;51.064;16.612;2023-03-15T05:40:34;2.30;99.90
26599;DHT22;14240;51.064;16.612;2023-03-15T05:42:59;2.40;99.90
26599;DHT22;14240;51.064;16.612;2023-03-15T05:45:25;2.40;99.90
26599;DHT22;14240;51.064;16.612;2023-03-15T05:47:51;2.40;99.90
26599;DHT22;14240;51.064;16.612;2023-03-15T05:50:17;2.40;99.90
26599;DHT22;14240;51.064;16.612;2023-03-15T05:52:42;2.40;99.90
26599;DHT22;14240;51.064;16.612;2023-03-15T05:55:08;2.40;99.90
26599;DHT22;14240;51.064;16.612;2023-03-15T05:57:34;2.50;99.90
26599;DHT22;14240;51.064;16.612;2023-03-15T06:00:00;2.50;99.90
26599;DHT22;14240;51.064;16.612;2023-03-15T06:02:26;2.60;99.90
26599;DHT22;14240;51.064;16.612;2023-03-15T06:04:51;2.60;99.90
26599;DHT22;14240;51.064;16.612;2023-03-15T06:07:17;2.60;99.90
26599;DHT22;14240;51.064;16.612;2023-03-15T06:09:43;2.70;99.90
26599;DHT22;14240;51.064;16.612;2023-03-15T06:12:09;2.70;99.90
26599;DHT22;14240;51.064;16.612;2023-03-15T06:14:34;2.80;99.90
26599;DHT22;14240;51.064;16.612;2023-03-15T06:17:00;2.80;99.90
26599;DHT22;14240;51.064;16.612;2023-03-15T06:19:26;2.90;99.90
26599;DHT22;14240;51.064;16.612;2023-03-15T06:21:51;2.90;99.90
26599;DHT22;14240;51.064;16.612;2023-03-15T06:24:17;3.00;99.90
26599;DHT22;14240;51.064;16.612;2023-03-15T06:26:43;3.10;99.90
26599;DHT22;14240;51.064;16.612;2023-03-15T06:29:08;3.10;99.90
26599;DHT22;14240;51.064;16.612;2023-03-15T06:31:34;3.20;99.90
26599;DHT22;14240;51.064;16.612;2023-03-15T06:34:00;3.30;99.90
26599;DHT22;14240;51.064;16.612;2023-03-15T06:36:26;3.30;99.90
26599;DHT22;14240;51.064;16.612;2023-03-15T06:38:52;3.40;99.90
26599;DHT22;14240;51.064;16.612;2023-03-15T06:41:19;3.40;99.90
26599;DHT22;14240;51.064;16.612;2023-03-15T06:43:46;3.50;99.90
26599;DHT22;14240;51.064;16.612;2023-03-15T06:46:11;3.60;99.90
26599;DHT22;14240;51.064;16.612;2023-03-15T06:48:37;3.70;99.90
26599;DHT22;14240;51.064;16.612;2023-03-15T06:51:03;3.80;99.90
26599;DHT22;14240;51.064;16.612;2023-03-15T06:53:30;3.90;99.90
26599;DHT22;14240;51.064;16.612;2023-03-15T06:55:55;4.00;99.90
26599;DHT22;14240;51.064;16.612;2023-03-15T06:58:21;4.10;99.90
26599;DHT22;14240;51.064;16.612;2023-03-15T07:00:48;4.30;99.90
26599;DHT22;14240;51.064;16.612;2023-03-15T07:03:14;4.50;99.90
26599;DHT22;14240;51.064;16.612;2023-03-15T07:05:39;4.70;99.90
26599;DHT22;14240;51.064;16.612;2023-03-15T07:08:05;4.90;99.90
26599;DHT22;14240;51.064;16.612;2023-03-15T07:10:31;5.20;99.90
26599;DHT22;14240;51.064;16.612;2023-03-15T07:12:57;5.60;99.90
26599;DHT22;14240;51.064;16.612;2023-03-15T07:15:23;6.10;99.90
26599;DHT22;14240;51.064;16.612;2023-03-15T07:17:49;6.60;99.90
26599;DHT22;14240;51.064;16.612;2023-03-15T07:20:14;7.20;99.90
26599;DHT22;14240;51.064;16.612;2023-03-15T07:22:40;7.90;99.90
26599;DHT22;14240;51.064;16.612;2023-03-15T07:25:06;8.50;99.90
26599;DHT22;14240;51.064;16.612;2023-03-15T07:27:32;9.10;99.90
26599;DHT22;14240;51.064;16.612;2023-03-15T07:29:58;9.90;99.90
26599;DHT22;14240;51.064;16.612;2023-03-15T07:32:25;10.60;99.90
26599;DHT22;14240;51.064;16.612;2023-03-15T07:34:51;11.20;99.90
26599;DHT22;14240;51.064;16.612;2023-03-15T07:37:17;11.80;99.90
26599;DHT22;14240;51.064;16.612;2023-03-15T07:39:42;12.30;99.90
26599;DHT22;14240;51.064;16.612;2023-03-15T07:42:08;12.50;99.90
26599;DHT22;14240;51.064;16.612;2023-03-15T07:44:34;12.90;99.90
26599;DHT22;14240;51.064;16.612;2023-03-15T07:47:00;13.10;99.70
26599;DHT22;14240;51.064;16.612;2023-03-15T07:49:26;13.30;98.40
26599;DHT22;14240;51.064;16.612;2023-03-15T07:51:51;13.30;96.90
26599;DHT22;14240;51.064;16.612;2023-03-15T07:54:17;13.30;96.20
26599;DHT22;14240;51.064;16.612;2023-03-15T07:56:43;13.10;95.10
26599;DHT22;14240;51.064;16.612;2023-03-15T07:59:09;13.00;94.80
26599;DHT22;14240;51.064;16.612;2023-03-15T08:01:35;12.80;94.50
26599;DHT22;14240;51.064;16.612;2023-03-15T08:04:01;13.10;95.30
26599;DHT22;14240;51.064;16.612;2023-03-15T08:06:26;13.60;93.60
26599;DHT22;14240;51.064;16.612;2023-03-15T08:08:52;14.00;93.40
26599;DHT22;14240;51.064;16.612;2023-03-15T08:11:18;14.60;92.60
26599;DHT22;14240;51.064;16.612;2023-03-15T08:13:43;14.60;90.10
26599;DHT22;14240;51.064;16.612;2023-03-15T08:16:09;14.30;89.30
26599;DHT22;14240;51.064;16.612;2023-03-15T08:18:35;14.10;89.90
26599;DHT22;14240;51.064;16.612;2023-03-15T08:21:01;13.90;88.80
26599;DHT22;14240;51.064;16.612;2023-03-15T08:23:26;14.00;90.90
26599;DHT22;14240;51.064;16.612;2023-03-15T08:25:52;14.60;91.00
26599;DHT22;14240;51.064;16.612;2023-03-15T08:28:18;15.20;89.00
26599;DHT22;14240;51.064;16.612;2023-03-15T08:30:43;15.60;87.10
26599;DHT22;14240;51.064;16.612;2023-03-15T08:33:09;15.90;84.70
26599;DHT22;14240;51.064;16.612;2023-03-15T08:35:36;16.00;82.60
26599;DHT22;14240;51.064;16.612;2023-03-15T08:38:02;15.90;80.60
26599;DHT22;14240;51.064;16.612;2023-03-15T08:40:29;15.60;80.10
26599;DHT22;14240;51.064;16.612;2023-03-15T08:42:56;15.30;80.90
26599;DHT22;14240;51.064;16.612;2023-03-15T08:45:23;15.00;79.90
26599;DHT22;14240;51.064;16.612;2023-03-15T08:47:53;14.70;81.20
26599;DHT22;14240;51.064;16.612;2023-03-15T08:50:19;14.40;80.80
26599;DHT22;14240;51.064;16.612;2023-03-15T08:52:45;14.10;82.70
26599;DHT22;14240;51.064;16.612;2023-03-15T08:55:11;14.00;83.70
26599;DHT22;14240;51.064;16.612;2023-03-15T08:57:39;14.00;82.40
26599;DHT22;14240;51.064;16.612;2023-03-15T09:00:06;13.70;80.90
26599;DHT22;14240;51.064;16.612;2023-03-15T09:02:39;13.20;81.80
26599;DHT22;14240;51.064;16.612;2023-03-15T09:05:05;12.90;82.60
26599;DHT22;14240;51.064;16.612;2023-03-15T09:07:32;12.60;83.00
26599;DHT22;14240;51.064;16.612;2023-03-15T09:09:57;12.30;84.30
26599;DHT22;14240;51.064;16.612;2023-03-15T09:12:23;12.10;84.90
26599;DHT22;14240;51.064;16.612;2023-03-15T09:14:48;12.10;87.40
26599;DHT22;14240;51.064;16.612;2023-03-15T09:17:14;12.30;87.50
26599;DHT22;14240;51.064;16.612;2023-03-15T09:19:40;12.50;87.00
26599;DHT22;14240;51.064;16.612;2023-03-15T09:22:06;12.70;87.20
26599;DHT22;14240;51.064;16.612;2023-03-15T09:24:32;13.10;87.60
26599;DHT22;14240;51.064;16.612;2023-03-15T09:26:57;13.60;87.30
26599;DHT22;14240;51.064;16.612;2023-03-15T09:29:23;14.00;84.30
26599;DHT22;14240;51.064;16.612;2023-03-15T09:31:49;14.20;83.20
26599;DHT22;14240;51.064;16.612;2023-03-15T09:34:15;14.10;81.70
26599;DHT22;14240;51.064;16.612;2023-03-15T09:36:40;13.90;80.90
26599;DHT22;14240;51.064;16.612;2023-03-15T09:39:06;13.70;81.90
26599;DHT22;14240;51.064;16.612;2023-03-15T09:41:43;13.60;81.70
26599;DHT22;14240;51.064;16.612;2023-03-15T09:45:14;13.50;82.40
26599;DHT22;14240;51.064;16.612;2023-03-15T09:47:39;13.30;82.40
26599;DHT22;14240;51.064;16.612;2023-03-15T09:50:25;13.10;82.10
26599;DHT22;14240;51.064;16.612;2023-03-15T09:52:58;12.90;83.20
26599;DHT22;14240;51.064;16.612;2023-03-15T09:55:26;12.80;81.80
26599;DHT22;14240;51.064;16.612;2023-03-15T09:57:56;12.60;80.50
26599;DHT22;14240;51.064;16.612;2023-03-15T10:00:39;12.30;81.20
26599;DHT22;14240;51.064;16.612;2023-03-15T10:03:23;12.20;81.00
26599;DHT22;14240;51.064;16.612;2023-03-15T10:05:55;12.00;81.80
26599;DHT22;14240;51.064;16.612;2023-03-15T10:08:23;11.90;82.60
26599;DHT22;14240;51.064;16.612;2023-03-15T10:11:14;11.70;82.90
26599;DHT22;14240;51.064;16.612;2023-03-15T10:14:29;11.70;82.80
26599;DHT22;14240;51.064;16.612;2023-03-15T10:16:41;11.60;82.30
26599;DHT22;14240;51.064;16.612;2023-03-15T10:30:20;11.40;83.50
26599;DHT22;14240;51.064;16.612;2023-03-15T10:32:51;11.10;83.40
26599;DHT22;14240;51.064;16.612;2023-03-15T10:35:18;10.90;82.80
26599;DHT22;14240;51.064;16.612;2023-03-15T10:37:44;10.80;84.60
26599;DHT22;14240;51.064;16.612;2023-03-15T10:40:12;10.70;85.30
26599;DHT22;14240;51.064;16.612;2023-03-15T10:42:45;10.70;85.20
26599;DHT22;14240;51.064;16.612;2023-03-15T10:45:22;10.60;85.70
26599;DHT22;14240;51.064;16.612;2023-03-15T10:47:49;10.70;84.60
26599;DHT22;14240;51.064;16.612;2023-03-15T10:50:26;10.40;84.20
26599;DHT22;14240;51.064;16.612;2023-03-15T10:52:55;10.30;85.50
26599;DHT22;14240;51.064;16.612;2023-03-15T10:55:34;10.10;86.40
26599;DHT22;14240;51.064;16.612;2023-03-15T10:58:24;10.00;87.10
26599;DHT22;14240;51.064;16.612;2023-03-15T11:01:03;9.90;88.80
26599;DHT22;14240;51.064;16.612;2023-03-15T11:03:33;10.00;90.00
26599;DHT22;14240;51.064;16.612;2023-03-15T11:05:59;10.10;90.10
26599;DHT22;14240;51.064;16.612;2023-03-15T11:08:37;10.20;89.80
26599;DHT22;14240;51.064;16.612;2023-03-15T11:11:04;10.10;88.20
26599;DHT22;14240;51.064;16.612;2023-03-15T11:13:32;10.00;88.20
26599;DHT22;14240;51.064;16.612;2023-03-15T11:18:48;10.00;90.20
26599;DHT22;14240;51.064;16.612;2023-03-15T11:21:19;10.00;88.40
26599;DHT22;14240;51.064;16.612;2023-03-15T11:23:48;9.90;88.40
26599;DHT22;14240;51.064;16.612;2023-03-15T11:26:21;9.90;88.60
26599;DHT22;14240;51.064;16.612;2023-03-15T11:29:00;9.90;88.40
26599;DHT22;14240;51.064;16.612;2023-03-15T11:31:28;9.80;88.30
26599;DHT22;14240;51.064;16.612;2023-03-15T11:36:24;9.50;87.70
26599;DHT22;14240;51.064;16.612;2023-03-15T11:38:51;9.40;86.40
26599;DHT22;14240;51.064;16.612;2023-03-15T11:41:32;9.20;86.60
26599;DHT22;14240;51.064;16.612;2023-03-15T11:44:05;9.10;87.70
26599;DHT22;14240;51.064;16.612;2023-03-15T11:51:56;8.70;88.40
26599;DHT22;14240;51.064;16.612;2023-03-15T11:54:25;8.70;88.90
26599;DHT22;14240;51.064;16.612;2023-03-15T11:57:00;8.80;89.00
26599;DHT22;14240;51.064;16.612;2023-03-15T11:59:37;8.70;88.80
26599;DHT22;14240;51.064;16.612;2023-03-15T12:07:24;8.90;89.80
26599;DHT22;14240;51.064;16.612;2023-03-15T12:19:59;8.80;90.00
26599;DHT22;14240;51.064;16.612;2023-03-15T12:22:31;8.80;90.60
26599;DHT22;14240;51.064;16.612;2023-03-15T12:27:53;9.00;90.80
26599;DHT22;14240;51.064;16.612;2023-03-15T12:30:21;9.10;90.40
26599;DHT22;14240;51.064;16.612;2023-03-15T12:32:50;9.20;90.70
26599;DHT22;14240;51.064;16.612;2023-03-15T12:35:19;9.40;91.40
26599;DHT22;14240;51.064;16.612;2023-03-15T12:37:47;9.50;91.40
26599;DHT22;14240;51.064;16.612;2023-03-15T12:55:54;9.30;89.90
26599;DHT22;14240;51.064;16.612;2023-03-15T12:58:25;9.10;89.80
26599;DHT22;14240;51.064;16.612;2023-03-15T13:00:53;9.00;90.30
26599;DHT22;14240;51.064;16.612;2023-03-15T13:03:25;8.90;90.50
26599;DHT22;14240;51.064;16.612;2023-03-15T13:11:55;8.50;91.00
26599;DHT22;14240;51.064;16.612;2023-03-15T13:20:39;8.20;91.60
26599;DHT22;14240;51.064;16.612;2023-03-15T13:28:35;8.00;92.10
26599;DHT22;14240;51.064;16.612;2023-03-15T13:33:50;7.80;92.70
26599;DHT22;14240;51.064;16.612;2023-03-15T13:36:21;7.70;92.80
26599;DHT22;14240;51.064;16.612;2023-03-15T13:38:51;7.70;93.20
26599;DHT22;14240;51.064;16.612;2023-03-15T13:41:27;7.70;93.10
26599;DHT22;14240;51.064;16.612;2023-03-15T13:43:55;7.60;93.20
26599;DHT22;14240;51.064;16.612;2023-03-15T13:46:24;7.60;93.60
26599;DHT22;14240;51.064;16.612;2023-03-15T13:48:53;7.60;93.90
26599;DHT22;14240;51.064;16.612;2023-03-15T13:51:26;7.60;93.90
26599;DHT22;14240;51.064;16.612;2023-03-15T13:59:27;7.70;94.90
26599;DHT22;14240;51.064;16.612;2023-03-15T14:01:55;7.80;95.10
26599;DHT22;14240;51.064;16.612;2023-03-15T14:04:22;7.80;95.10
26599;DHT22;14240;51.064;16.612;2023-03-15T14:06:49;7.80;95.10
26599;DHT22;14240;51.064;16.612;2023-03-15T14:09:23;7.80;95.50
26599;DHT22;14240;51.064;16.612;2023-03-15T14:12:20;7.90;95.70
26599;DHT22;14240;51.064;16.612;2023-03-15T14:14:50;7.90;95.60
26599;DHT22;14240;51.064;16.612;2023-03-15T14:17:25;7.80;95.80
26599;DHT22;14240;51.064;16.612;2023-03-15T14:19:53;7.80;96.20
26599;DHT22;14240;51.064;16.612;2023-03-15T14:22:19;7.80;96.40
26599;DHT22;14240;51.064;16.612;2023-03-15T14:24:48;7.80;96.30
26599;DHT22;14240;51.064;16.612;2023-03-15T14:27:24;7.90;96.70
26599;DHT22;14240;51.064;16.612;2023-03-15T14:29:53;7.90;96.90
26599;DHT22;14240;51.064;16.612;2023-03-15T14:32:28;7.90;97.00
26599;DHT22;14240;51.064;16.612;2023-03-15T14:37:44;7.90;97.30
26599;DHT22;14240;51.064;16.612;2023-03-15T14:40:11;7.90;97.30
26599;DHT22;14240;51.064;16.612;2023-03-15T14:42:41;7.90;97.50
26599;DHT22;14240;51.064;16.612;2023-03-15T14:45:07;7.90;97.60
26599;DHT22;14240;51.064;16.612;2023-03-15T14:47:38;8.00;98.10
26599;DHT22;14240;51.064;16.612;2023-03-15T14:50:15;8.00;98.30
26599;DHT22;14240;51.064;16.612;2023-03-15T14:52:43;8.10;98.40
26599;DHT22;14240;51.064;16.612;2023-03-15T14:55:15;8.10;98.70
26599;DHT22;14240;51.064;16.612;2023-03-15T14:57:42;8.20;98.80
26599;DHT22;14240;51.064;16.612;2023-03-15T15:00:12;8.30;98.90
26599;DHT22;14240;51.064;16.612;2023-03-15T15:02:41;8.30;98.80
26599;DHT22;14240;51.064;16.612;2023-03-15T15:05:34;8.30;98.90
26599;DHT22;14240;51.064;16.612;2023-03-15T15:08:07;8.30;98.70
26599;DHT22;14240;51.064;16.612;2023-03-15T15:10:34;8.20;98.90
26599;DHT22;14240;51.064;16.612;2023-03-15T15:13:00;8.20;99.10
26599;DHT22;14240;51.064;16.612;2023-03-15T15:15:26;8.10;98.90
26599;DHT22;14240;51.064;16.612;2023-03-15T15:17:52;8.10;98.90
26599;DHT22;14240;51.064;16.612;2023-03-15T15:20:18;8.00;98.80
26599;DHT22;14240;51.064;16.612;2023-03-15T15:22:48;7.90;98.60
26599;DHT22;14240;51.064;16.612;2023-03-15T15:25:23;7.90;98.40
26599;DHT22;14240;51.064;16.612;2023-03-15T15:27:49;7.80;98.30
26599;DHT22;14240;51.064;16.612;2023-03-15T15:30:21;7.70;98.20
26599;DHT22;14240;51.064;16.612;2023-03-15T15:32:47;7.60;98.30
26599;DHT22;14240;51.064;16.612;2023-03-15T15:35:15;7.60;98.70
26599;DHT22;14240;51.064;16.612;2023-03-15T15:37:41;7.50;99.40
26599;DHT22;14240;51.064;16.612;2023-03-15T15:40:20;7.30;99.80
26599;DHT22;14240;51.064;16.612;2023-03-15T15:42:47;7.20;99.90
26599;DHT22;14240;51.064;16.612;2023-03-15T15:45:14;7.00;99.90
26599;DHT22;14240;51.064;16.612;2023-03-15T15:47:40;6.80;99.90
26599;DHT22;14240;51.064;16.612;2023-03-15T15:50:09;6.70;99.90
26599;DHT22;14240;51.064;16.612;2023-03-15T15:52:37;6.60;99.90
26599;DHT22;14240;51.064;16.612;2023-03-15T15:55:12;6.50;99.90
26599;DHT22;14240;51.064;16.612;2023-03-15T15:57:39;6.50;99.90
26599;DHT22;14240;51.064;16.612;2023-03-15T16:00:07;6.50;99.90
26599;DHT22;14240;51.064;16.612;2023-03-15T16:02:33;6.40;99.90
26599;DHT22;14240;51.064;16.612;2023-03-15T16:04:59;6.40;99.90
26599;DHT22;14240;51.064;16.612;2023-03-15T16:07:25;6.30;99.90
26599;DHT22;14240;51.064;16.612;2023-03-15T16:09:54;6.40;99.90
26599;DHT22;14240;51.064;16.612;2023-03-15T16:12:21;6.30;99.90
26599;DHT22;14240;51.064;16.612;2023-03-15T16:14:48;6.30;99.90
26599;DHT22;14240;51.064;16.612;2023-03-15T16:17:19;6.30;99.90
26599;DHT22;14240;51.064;16.612;2023-03-15T16:19:51;6.20;99.90
26599;DHT22;14240;51.064;16.612;2023-03-15T16:22:19;6.10;99.90
26599;DHT22;14240;51.064;16.612;2023-03-15T16:24:47;6.10;99.90
26599;DHT22;14240;51.064;16.612;2023-03-15T16:27:17;6.00;99.90
26599;DHT22;14240;51.064;16.612;2023-03-15T16:29:45;5.90;99.90
26599;DHT22;14240;51.064;16.612;2023-03-15T16:32:16;5.90;99.90
26599;DHT22;14240;51.064;16.612;2023-03-15T16:34:42;5.80;99.90
26599;DHT22;14240;51.064;16.612;2023-03-15T16:37:12;5.80;99.90
26599;DHT22;14240;51.064;16.612;2023-03-15T16:39:39;5.80;99.90
26599;DHT22;14240;51.064;16.612;2023-03-15T16:42:05;5.70;99.90
26599;DHT22;14240;51.064;16.612;2023-03-15T16:44:31;5.70;99.90
26599;DHT22;14240;51.064;16.612;2023-03-15T16:46:57;5.70;99.90
26599;DHT22;14240;51.064;16.612;2023-03-15T16:49:22;5.60;99.90
26599;DHT22;14240;51.064;16.612;2023-03-15T16:51:49;5.50;99.90
26599;DHT22;14240;51.064;16.612;2023-03-15T16:54:16;5.50;99.90
26599;DHT22;14240;51.064;16.612;2023-03-15T16:56:42;5.50;99.90
26599;DHT22;14240;51.064;16.612;2023-03-15T16:59:13;5.40;99.90
26599;DHT22;14240;51.064;16.612;2023-03-15T17:01:39;5.30;99.90
26599;DHT22;14240;51.064;16.612;2023-03-15T17:04:04;5.30;99.90
26599;DHT22;14240;51.064;16.612;2023-03-15T17:06:31;5.20;99.90
26599;DHT22;14240;51.064;16.612;2023-03-15T17:09:04;5.10;99.90
26599;DHT22;14240;51.064;16.612;2023-03-15T17:11:38;5.00;99.90